createdAt,value
2019-03-29T00:01:04.592Z,17.43
2019-03-29T00:03:39.482Z,18.97
2019-03-29T00:06:14.038Z,15.23
2019-03-29T00:08:50.431Z,23.30
2019-03-29T00:11:25.227Z,21.17
2019-03-29T00:14:01.816Z,21.63
2019-03-29T00:16:36.321Z,22.83
2019-03-29T00:19:10.900Z,17.80
2019-03-29T00:21:45.428Z,15.10
2019-03-29T00:24:19.955Z,23.60
2019-03-29T00:26:54.577Z,16.50
2019-03-29T00:29:30.940Z,17.03
2019-03-29T00:32:06.116Z,15.83
2019-03-29T00:34:41.910Z,14.30
2019-03-29T00:37:17.323Z,23.63
2019-03-29T00:39:52.726Z,15.07
2019-03-29T00:42:28.997Z,23.37
2019-03-29T00:45:05.696Z,18.13
2019-03-29T00:47:43.220Z,16.83
2019-03-29T00:50:17.941Z,19.20
2019-03-29T00:52:52.577Z,19.47
2019-03-29T00:55:28.890Z,23.60
2019-03-29T00:58:03.417Z,25.57
2019-03-29T01:00:38.543Z,21.57
2019-03-29T01:03:13.162Z,24.60
2019-03-29T01:05:47.934Z,22.70
2019-03-29T01:08:22.534Z,23.73
2019-03-29T01:10:57.432Z,26.90
2019-03-29T01:13:31.984Z,25.53
2019-03-29T01:16:06.806Z,21.43
2019-03-29T01:18:41.303Z,24.37
2019-03-29T01:21:15.880Z,27.27
2019-03-29T01:23:50.550Z,20.57
2019-03-29T01:26:25.278Z,19.73
2019-03-29T01:28:59.822Z,25.17
2019-03-29T01:31:34.885Z,22.37
2019-03-29T01:34:09.460Z,24.67
2019-03-29T01:36:44.192Z,24.20
2019-03-29T01:39:18.718Z,25.30
2019-03-29T01:41:53.348Z,31.40
2019-03-29T01:44:28.233Z,27.47
2019-03-29T01:47:03.923Z,28.60
2019-03-29T01:49:38.691Z,27.23
2019-03-29T01:52:13.283Z,31.03
2019-03-29T01:54:47.903Z,32.00
2019-03-29T01:57:25.324Z,24.93
2019-03-29T01:59:59.946Z,28.03
2019-03-29T02:02:34.452Z,29.43
2019-03-29T02:05:09.714Z,25.90
2019-03-29T02:07:44.295Z,26.80
2019-03-29T02:10:22.761Z,26.33
2019-03-29T02:12:58.190Z,29.43
2019-03-29T02:15:32.772Z,31.73
2019-03-29T02:18:07.388Z,32.10
2019-03-29T02:20:42.032Z,32.97
2019-03-29T02:23:16.685Z,31.60
2019-03-29T02:25:51.210Z,26.83
2019-03-29T02:28:27.450Z,29.13
2019-03-29T02:31:02.499Z,31.23
2019-03-29T02:33:38.083Z,32.43
2019-03-29T02:36:13.142Z,38.23
2019-03-29T02:38:55.716Z,34.43
2019-03-29T02:41:23.846Z,29.57
2019-03-29T02:44:00.430Z,31.00
2019-03-29T02:46:36.467Z,38.93
2019-03-29T02:49:12.731Z,38.13
2019-03-29T02:51:47.826Z,36.13
2019-03-29T02:54:22.486Z,33.20
2019-03-29T02:56:58.903Z,34.30
2019-03-29T02:59:33.448Z,32.43
2019-03-29T03:02:08.163Z,36.80
2019-03-29T03:04:43.604Z,29.43
2019-03-29T03:07:18.174Z,36.57
2019-03-29T03:09:54.496Z,32.93
2019-03-29T03:12:29.120Z,37.00
2019-03-29T03:15:03.624Z,31.07
2019-03-29T03:17:39.504Z,40.03
2019-03-29T03:20:15.955Z,34.10
2019-03-29T03:22:50.678Z,34.43
2019-03-29T03:25:27.370Z,38.63
2019-03-29T03:28:01.930Z,43.17
2019-03-29T03:30:36.523Z,37.73
2019-03-29T03:33:11.213Z,33.07
2019-03-29T03:35:48.725Z,37.03
2019-03-29T03:38:23.376Z,43.23
2019-03-29T03:40:59.493Z,35.77
2019-03-29T03:43:34.328Z,39.07
2019-03-29T03:46:10.834Z,40.80
2019-03-29T03:48:46.758Z,38.63
2019-03-29T03:51:21.556Z,36.90
2019-03-29T03:53:57.124Z,37.77
2019-03-29T03:56:33.182Z,37.57
2019-03-29T03:59:08.101Z,42.20
2019-03-29T04:01:42.719Z,41.27
2019-03-29T04:04:17.248Z,37.20
2019-03-29T04:06:51.987Z,45.73
2019-03-29T04:09:26.670Z,40.27
2019-03-29T04:12:01.252Z,40.60
2019-03-29T04:14:37.252Z,42.90
2019-03-29T04:17:13.578Z,40.00
2019-03-29T04:19:48.548Z,41.77
2019-03-29T04:22:24.547Z,39.77
2019-03-29T04:25:00.578Z,38.47
2019-03-29T04:27:35.239Z,42.40
2019-03-29T04:30:10.428Z,36.40
2019-03-29T04:32:45.058Z,32.33
2019-03-29T04:35:19.770Z,38.00
2019-03-29T04:37:54.399Z,35.13
2019-03-29T04:40:28.871Z,38.70
2019-03-29T04:43:04.827Z,39.20
2019-03-29T04:45:39.316Z,39.77
2019-03-29T04:48:14.209Z,35.73
2019-03-29T04:50:48.703Z,43.13
2019-03-29T04:53:23.406Z,45.87
2019-03-29T04:55:58.126Z,57.30
2019-03-29T04:58:32.766Z,49.93
2019-03-29T05:01:07.222Z,48.90
2019-03-29T05:03:41.805Z,43.90
2019-03-29T05:06:16.324Z,52.57
2019-03-29T05:08:53.020Z,55.10
2019-03-29T05:11:27.669Z,55.40
2019-03-29T05:14:02.356Z,45.57
2019-03-29T05:16:38.720Z,36.77
2019-03-29T05:19:13.247Z,56.63
2019-03-29T05:21:47.762Z,41.70
2019-03-29T05:24:22.399Z,48.50
2019-03-29T05:26:57.211Z,47.10
2019-03-29T05:29:32.170Z,46.83
2019-03-29T05:32:06.634Z,48.37
2019-03-29T05:34:41.793Z,43.70
2019-03-29T05:37:16.436Z,48.10
2019-03-29T05:39:52.832Z,42.47
2019-03-29T05:42:27.349Z,46.07
2019-03-29T05:45:01.950Z,42.93
2019-03-29T05:47:36.545Z,49.90
2019-03-29T05:50:11.360Z,45.37
2019-03-29T05:52:45.852Z,51.50
2019-03-29T05:55:32.033Z,49.10
2019-03-29T05:57:57.115Z,56.53
2019-03-29T06:00:31.656Z,46.33
2019-03-29T06:03:06.189Z,41.90
2019-03-29T06:05:41.076Z,48.23
2019-03-29T06:08:15.757Z,45.17
2019-03-29T06:10:50.383Z,48.00
2019-03-29T06:13:26.603Z,46.70
2019-03-29T06:16:01.170Z,50.20
2019-03-29T06:18:35.833Z,46.27
2019-03-29T06:21:11.863Z,47.07
2019-03-29T06:23:46.587Z,46.93
2019-03-29T06:26:21.412Z,51.73
2019-03-29T06:28:56.398Z,51.27
2019-03-29T06:31:31.399Z,46.57
2019-03-29T06:34:05.960Z,53.67
2019-03-29T06:36:42.196Z,54.27
2019-03-29T06:39:21.192Z,45.30
2019-03-29T06:41:57.126Z,51.60
2019-03-29T06:44:31.893Z,45.47
2019-03-29T06:47:08.304Z,51.73
2019-03-29T06:49:42.809Z,46.30
2019-03-29T06:52:17.299Z,44.50
2019-03-29T06:54:53.713Z,42.97
2019-03-29T06:57:30.343Z,45.40
2019-03-29T07:00:05.220Z,50.80
2019-03-29T07:02:41.605Z,50.33
2019-03-29T07:05:16.378Z,46.47
2019-03-29T07:07:51.324Z,51.37
2019-03-29T07:10:56.461Z,53.57
2019-03-29T07:13:36.323Z,44.87
2019-03-29T07:16:12.566Z,50.43
2019-03-29T07:18:49.002Z,52.27
2019-03-29T07:21:23.652Z,46.77
2019-03-29T07:24:00.106Z,60.73
2019-03-29T07:26:36.544Z,40.53
2019-03-29T07:29:11.097Z,47.67
2019-03-29T07:31:45.823Z,48.33
2019-03-29T07:34:20.389Z,46.87
2019-03-29T07:36:55.026Z,47.00
2019-03-29T07:39:29.605Z,44.27
2019-03-29T07:42:04.683Z,39.93
2019-03-29T07:44:39.513Z,37.00
2019-03-29T07:47:14.094Z,39.50
2019-03-29T07:49:48.713Z,41.73
2019-03-29T07:52:23.565Z,33.83
2019-03-29T07:54:58.246Z,33.70
2019-03-29T07:57:34.852Z,31.73
2019-03-29T08:00:11.746Z,32.50
2019-03-29T08:02:47.301Z,32.73
2019-03-29T08:05:23.640Z,36.00
2019-03-29T08:07:59.886Z,33.23
2019-03-29T08:10:36.272Z,32.83
2019-03-29T08:13:12.394Z,29.00
2019-03-29T08:15:48.397Z,35.30
2019-03-29T08:18:22.957Z,33.30
2019-03-29T08:20:57.691Z,36.57
2019-03-29T08:23:32.220Z,30.77
2019-03-29T08:26:09.280Z,30.80
2019-03-29T08:28:43.946Z,33.90
2019-03-29T08:31:18.808Z,31.13
2019-03-29T08:33:53.580Z,32.03
2019-03-29T08:36:28.261Z,35.00
2019-03-29T08:39:02.729Z,36.20
2019-03-29T08:41:37.199Z,32.47
2019-03-29T08:44:12.050Z,31.83
2019-03-29T08:46:48.476Z,31.07
2019-03-29T08:49:24.752Z,32.10
2019-03-29T08:51:59.383Z,26.50
2019-03-29T08:54:36.195Z,26.33
2019-03-29T08:57:11.015Z,30.83
2019-03-29T08:59:47.134Z,29.70
2019-03-29T09:02:25.092Z,28.37
2019-03-29T09:04:59.585Z,31.33
2019-03-29T09:07:44.424Z,25.90
2019-03-29T09:10:26.116Z,21.70
2019-03-29T09:13:04.085Z,17.40
2019-03-29T09:15:36.884Z,23.03
2019-03-29T09:18:11.316Z,28.43
2019-03-29T09:20:46.010Z,29.37
2019-03-29T09:23:20.856Z,25.93
2019-03-29T09:25:55.637Z,26.73
2019-03-29T09:28:32.751Z,19.30
2019-03-29T09:31:08.167Z,20.43
2019-03-29T09:33:42.903Z,20.80
2019-03-29T09:36:17.425Z,19.60
2019-03-29T09:38:52.168Z,16.67
2019-03-29T09:41:26.955Z,16.20
2019-03-29T09:44:02.169Z,14.93
2019-03-29T09:46:36.939Z,21.10
2019-03-29T09:49:11.349Z,18.60
2019-03-29T09:51:47.555Z,18.53
2019-03-29T09:54:21.958Z,17.97
2019-03-29T09:56:57.071Z,16.60
2019-03-29T09:59:31.577Z,14.27
2019-03-29T10:02:06.200Z,17.97
2019-03-29T10:04:40.990Z,16.70
2019-03-29T10:07:15.832Z,18.50
2019-03-29T10:09:52.290Z,16.03
2019-03-29T10:12:26.908Z,14.43
2019-03-29T10:15:01.449Z,15.20
2019-03-29T10:17:37.704Z,17.97
2019-03-29T10:20:12.998Z,16.33
2019-03-29T10:22:48.013Z,15.50
2019-03-29T10:25:22.516Z,22.03
2019-03-29T10:27:57.136Z,17.70
2019-03-29T10:30:46.651Z,19.43
2019-03-29T10:33:20.960Z,16.40
2019-03-29T10:35:56.063Z,14.57
2019-03-29T10:38:30.932Z,16.80
2019-03-29T10:41:05.363Z,19.67
2019-03-29T10:43:39.841Z,21.07
2019-03-29T10:46:14.878Z,17.47
2019-03-29T10:48:49.762Z,15.53
2019-03-29T10:51:25.852Z,15.13
2019-03-29T10:54:00.263Z,17.33
2019-03-29T10:56:35.019Z,15.93
2019-03-29T10:59:09.407Z,15.10
2019-03-29T11:01:44.174Z,15.80
2019-03-29T11:04:18.672Z,18.97
2019-03-29T11:06:55.261Z,23.83
2019-03-29T11:09:30.064Z,17.53
2019-03-29T11:12:04.544Z,17.30
2019-03-29T11:14:39.101Z,19.17
2019-03-29T11:17:13.669Z,15.93
2019-03-29T11:19:48.277Z,17.43
2019-03-29T11:22:22.889Z,19.60
2019-03-29T11:24:57.309Z,18.10
2019-03-29T11:27:31.746Z,24.20
2019-03-29T11:30:06.822Z,20.20
2019-03-29T11:32:41.537Z,20.90
2019-03-29T11:35:16.150Z,17.67
2019-03-29T11:37:51.939Z,18.80
2019-03-29T11:40:28.280Z,16.83
2019-03-29T11:43:04.843Z,23.40
2019-03-29T11:45:40.329Z,16.47
2019-03-29T11:48:15.061Z,14.87
2019-03-29T11:50:49.692Z,15.53
2019-03-29T11:53:25.516Z,19.53
2019-03-29T11:56:01.685Z,19.50
2019-03-29T11:58:36.388Z,19.40
2019-03-29T12:01:11.148Z,16.87
2019-03-29T12:03:45.657Z,14.50
2019-03-29T12:06:20.183Z,13.80
2019-03-29T12:08:57.113Z,13.80
2019-03-29T12:11:31.144Z,17.93
2019-03-29T12:14:05.973Z,15.37
2019-03-29T12:16:41.013Z,14.47
2019-03-29T12:19:17.488Z,13.00
2019-03-29T12:21:52.528Z,18.17
2019-03-29T12:24:29.018Z,16.23
2019-03-29T12:27:04.082Z,14.30
2019-03-29T12:29:38.854Z,14.70
2019-03-29T12:32:10.836Z,25.33
2019-03-29T12:34:45.668Z,16.63
2019-03-29T12:37:21.085Z,16.87
2019-03-29T12:39:55.477Z,18.20
2019-03-29T12:42:29.975Z,15.93
2019-03-29T12:45:05.011Z,16.77
2019-03-29T12:47:41.826Z,20.20
2019-03-29T12:50:17.052Z,17.43
2019-03-29T12:52:51.639Z,15.13
2019-03-29T12:55:26.717Z,21.53
2019-03-29T12:58:01.357Z,17.70
2019-03-29T13:00:36.168Z,17.17
2019-03-29T13:03:11.175Z,18.23
2019-03-29T13:05:45.619Z,19.13
2019-03-29T13:08:20.564Z,18.37
2019-03-29T13:10:55.321Z,15.10
2019-03-29T13:13:30.958Z,20.47
2019-03-29T13:16:05.369Z,15.90
2019-03-29T13:18:42.017Z,17.60
2019-03-29T13:21:18.338Z,20.00
2019-03-29T13:23:52.888Z,16.57
2019-03-29T13:26:27.538Z,19.07
2019-03-29T13:29:02.310Z,17.80
2019-03-29T13:31:36.901Z,20.63
2019-03-29T13:34:11.858Z,20.77
2019-03-29T13:36:48.675Z,16.03
2019-03-29T13:39:23.224Z,15.23
2019-03-29T13:41:59.297Z,15.80
2019-03-29T13:44:34.087Z,17.83
2019-03-29T13:47:08.485Z,19.60
2019-03-29T13:49:43.232Z,19.40
2019-03-29T13:52:18.129Z,17.83
2019-03-29T13:54:53.241Z,19.13
2019-03-29T13:57:27.684Z,19.03
2019-03-29T14:00:02.116Z,19.10
2019-03-29T14:02:37.036Z,12.60
2019-03-29T14:05:12.374Z,14.93
2019-03-29T14:07:48.181Z,16.07
2019-03-29T14:10:22.714Z,15.97
2019-03-29T14:12:59.309Z,16.83
2019-03-29T14:15:33.908Z,17.50
2019-03-29T14:18:09.252Z,16.80
2019-03-29T14:20:44.133Z,15.03
2019-03-29T14:23:18.763Z,16.33
2019-03-29T14:25:53.234Z,17.20
2019-03-29T14:28:27.702Z,13.20
2019-03-29T14:31:02.172Z,12.50
2019-03-29T14:33:36.653Z,12.80
2019-03-29T14:36:11.455Z,12.80
2019-03-29T14:38:46.014Z,14.77
2019-03-29T14:41:20.481Z,14.57
2019-03-29T14:43:55.151Z,11.37
2019-03-29T14:46:31.404Z,12.73
2019-03-29T14:49:08.050Z,15.93
2019-03-29T14:51:42.442Z,12.37
2019-03-29T14:54:16.877Z,11.87
2019-03-29T14:56:51.599Z,15.43
2019-03-29T14:59:26.041Z,14.60
2019-03-29T15:02:00.478Z,13.17
2019-03-29T15:04:34.961Z,13.00
2019-03-29T15:07:09.466Z,13.43
2019-03-29T15:09:44.028Z,12.20
2019-03-29T15:12:18.538Z,14.20
2019-03-29T15:15:05.599Z,12.53
2019-03-29T15:17:29.076Z,13.33
2019-03-29T15:20:07.505Z,10.73
2019-03-29T15:22:41.919Z,12.53
2019-03-29T15:25:16.341Z,13.73
2019-03-29T15:27:50.755Z,9.90
2019-03-29T15:30:25.169Z,11.10
2019-03-29T15:32:59.649Z,14.17
2019-03-29T15:35:34.106Z,12.80
2019-03-29T15:38:08.821Z,12.37
2019-03-29T15:40:43.250Z,11.20
2019-03-29T15:43:18.040Z,11.30
2019-03-29T15:45:52.847Z,10.40
2019-03-29T15:48:27.940Z,10.33
2019-03-29T15:51:02.461Z,13.90
2019-03-29T15:53:37.090Z,10.93
2019-03-29T15:56:11.810Z,10.70
2019-03-29T15:58:46.275Z,9.73
2019-03-29T16:01:20.661Z,10.00
2019-03-29T16:03:55.071Z,13.50
2019-03-29T16:06:29.535Z,11.23
2019-03-29T16:09:04.750Z,11.70
2019-03-29T16:11:39.183Z,10.17
2019-03-29T16:14:13.697Z,13.03
2019-03-29T16:16:48.148Z,13.53
2019-03-29T16:19:22.535Z,12.23
2019-03-29T16:21:57.072Z,13.03
2019-03-29T16:24:31.466Z,11.20
2019-03-29T16:27:06.282Z,14.27
2019-03-29T16:29:42.214Z,16.27
2019-03-29T16:32:16.643Z,15.87
2019-03-29T16:34:51.123Z,11.40
2019-03-29T16:37:26.051Z,11.87
2019-03-29T16:40:00.523Z,12.77
2019-03-29T16:42:35.024Z,11.00
2019-03-29T16:45:09.653Z,13.47
2019-03-29T16:47:44.154Z,15.63
2019-03-29T16:50:18.543Z,13.97
2019-03-29T16:52:53.025Z,17.10
2019-03-29T16:55:32.129Z,13.23
2019-03-29T16:58:06.757Z,12.87
2019-03-29T17:00:41.274Z,31.87
2019-03-29T17:03:15.732Z,14.93
2019-03-29T17:05:50.822Z,14.40
2019-03-29T17:08:25.301Z,15.27
2019-03-29T17:10:59.784Z,15.23
2019-03-29T17:13:34.227Z,17.40
2019-03-29T17:16:08.831Z,16.93
2019-03-29T17:18:43.324Z,14.70
2019-03-29T17:21:17.787Z,19.70
2019-03-29T17:23:52.858Z,16.63
2019-03-29T17:27:38.616Z,16.30
2019-03-29T17:30:15.685Z,18.87
2019-03-29T17:32:50.555Z,16.33
2019-03-29T17:35:25.036Z,15.10
2019-03-29T17:37:59.438Z,18.10
2019-03-29T17:40:35.710Z,13.90
2019-03-29T17:43:10.209Z,16.47
2019-03-29T17:45:44.727Z,20.20
2019-03-29T17:48:19.294Z,17.93
2019-03-29T17:50:53.696Z,17.67
2019-03-29T17:53:28.487Z,17.03
2019-03-29T17:56:03.469Z,16.70
2019-03-29T17:58:38.297Z,30.00
2019-03-29T18:01:13.297Z,15.47
2019-03-29T18:03:47.781Z,19.40
2019-03-29T18:06:22.228Z,16.33
2019-03-29T18:08:56.742Z,16.30
2019-03-29T18:11:31.313Z,15.50
2019-03-29T18:14:06.136Z,15.60
2019-03-29T18:16:40.676Z,18.50
2019-03-29T18:19:15.476Z,17.30
2019-03-29T18:21:49.955Z,15.77
2019-03-29T18:24:24.362Z,16.70
2019-03-29T18:26:58.852Z,22.83
2019-03-29T18:29:33.590Z,17.63
2019-03-29T18:32:08.432Z,17.40
2019-03-29T18:34:43.094Z,23.20
2019-03-29T18:37:17.644Z,18.83
2019-03-29T18:39:54.980Z,17.07
2019-03-29T18:42:28.720Z,19.40
2019-03-29T18:45:03.649Z,19.47
2019-03-29T18:47:38.385Z,19.93
2019-03-29T18:50:13.103Z,24.13
2019-03-29T18:52:47.641Z,18.60
2019-03-29T18:55:22.733Z,24.20
2019-03-29T18:57:57.601Z,29.90
2019-03-29T19:00:34.127Z,19.50
2019-03-29T19:03:11.994Z,21.67
2019-03-29T19:05:46.842Z,18.83
2019-03-29T19:08:21.483Z,23.67
2019-03-29T19:10:56.565Z,23.80
2019-03-29T19:13:31.211Z,22.87
2019-03-29T19:16:05.977Z,29.30
2019-03-29T19:18:42.461Z,26.87
2019-03-29T19:21:17.494Z,23.30
2019-03-29T19:23:52.314Z,21.60
2019-03-29T19:26:28.781Z,26.87
2019-03-29T19:29:03.709Z,26.00
2019-03-29T19:31:38.200Z,24.20
2019-03-29T19:34:13.660Z,21.90
2019-03-29T19:36:48.227Z,27.80
2019-03-29T19:39:23.589Z,26.73
2019-03-29T19:41:58.294Z,23.40
2019-03-29T19:44:33.985Z,23.73
2019-03-29T19:47:13.681Z,22.70
2019-03-29T19:49:45.027Z,26.60
2019-03-29T19:52:19.459Z,31.80
2019-03-29T19:54:53.921Z,28.63
2019-03-29T19:57:28.954Z,25.63
2019-03-29T20:00:06.103Z,27.37
2019-03-29T20:02:39.857Z,25.63
2019-03-29T20:05:29.630Z,22.63
2019-03-29T20:08:05.593Z,26.37
2019-03-29T20:10:40.038Z,25.40
2019-03-29T20:13:14.543Z,27.90
2019-03-29T20:15:49.346Z,27.07
2019-03-29T20:18:25.737Z,25.83
2019-03-29T20:21:01.861Z,28.40
2019-03-29T20:23:36.260Z,22.30
2019-03-29T20:26:10.739Z,23.30
2019-03-29T20:28:45.185Z,34.67
2019-03-29T20:31:19.974Z,22.17
2019-03-29T20:33:54.509Z,24.37
2019-03-29T20:36:28.921Z,24.30
2019-03-29T20:39:03.758Z,29.30
2019-03-29T20:41:38.556Z,28.13
2019-03-29T20:44:15.256Z,29.20
2019-03-29T20:46:49.975Z,25.87
2019-03-29T20:49:24.415Z,26.43
2019-03-29T20:51:59.194Z,24.80
2019-03-29T20:54:33.916Z,33.83
2019-03-29T20:57:08.655Z,30.03
2019-03-29T20:59:43.907Z,27.77
2019-03-29T21:02:18.353Z,42.53
2019-03-29T21:04:53.099Z,33.73
2019-03-29T21:07:27.599Z,28.50
2019-03-29T21:10:02.092Z,29.97
2019-03-29T21:12:38.176Z,27.77
2019-03-29T21:15:13.104Z,24.10
2019-03-29T21:17:56.445Z,26.67
2019-03-29T21:20:23.948Z,28.10
2019-03-29T21:22:58.745Z,29.30
2019-03-29T21:25:33.147Z,29.87
2019-03-29T21:28:07.685Z,32.03
2019-03-29T21:30:42.359Z,34.90
2019-03-29T21:33:17.171Z,31.60
2019-03-29T21:35:51.860Z,27.00
2019-03-29T21:38:26.345Z,28.13
2019-03-29T21:41:00.725Z,30.90
2019-03-29T21:43:35.240Z,28.73
2019-03-29T21:46:10.031Z,27.93
2019-03-29T21:48:44.502Z,28.80
2019-03-29T21:51:18.970Z,25.17
2019-03-29T21:53:54.546Z,31.37
2019-03-29T21:56:29.118Z,39.10
2019-03-29T21:59:03.552Z,25.70
2019-03-29T22:01:40.862Z,30.63
2019-03-29T22:04:15.850Z,27.90
2019-03-29T22:06:50.552Z,30.90
2019-03-29T22:09:36.393Z,29.00
2019-03-29T22:12:01.077Z,27.30
2019-03-29T22:14:35.483Z,30.90
2019-03-29T22:17:10.329Z,32.10
2019-03-29T22:19:45.022Z,24.77
2019-03-29T22:22:19.969Z,26.37
2019-03-29T22:24:54.457Z,21.43
2019-03-29T22:27:28.838Z,24.83
2019-03-29T22:30:03.403Z,27.37
2019-03-29T22:32:38.682Z,27.60
2019-03-29T22:35:13.090Z,22.40
2019-03-29T22:37:47.576Z,24.40
2019-03-29T22:40:21.953Z,24.27
2019-03-29T22:42:56.649Z,22.40
2019-03-29T22:45:31.614Z,23.83
2019-03-29T22:48:06.717Z,23.20
2019-03-29T22:50:41.070Z,24.70
2019-03-29T22:53:15.652Z,21.70
2019-03-29T22:55:50.046Z,23.37
2019-03-29T22:58:24.454Z,23.87
2019-03-29T23:01:00.763Z,24.00
2019-03-29T23:03:35.155Z,27.23
2019-03-29T23:06:09.549Z,23.40
2019-03-29T23:08:43.907Z,33.77
2019-03-29T23:11:18.323Z,31.13
2019-03-29T23:13:52.710Z,38.00
2019-03-29T23:16:30.261Z,41.07
2019-03-29T23:19:06.721Z,40.90
2019-03-29T23:21:39.504Z,41.77
2019-03-29T23:24:13.916Z,30.13
2019-03-29T23:26:48.565Z,29.97
2019-03-29T23:29:22.982Z,29.37
2019-03-29T23:31:57.620Z,30.30
2019-03-29T23:34:32.309Z,30.60
2019-03-29T23:37:06.657Z,29.70
2019-03-29T23:39:41.252Z,23.00
2019-03-29T23:42:16.290Z,29.23
2019-03-29T23:44:51.122Z,27.97
2019-03-29T23:47:25.458Z,26.60
2019-03-29T23:50:00.291Z,24.30
2019-03-29T23:52:34.688Z,28.30
2019-03-29T23:55:09.133Z,27.80
2019-03-29T23:57:43.580Z,31.30
